Time;durP1;ratioP1;P1;durP2;ratioP2;P2;SDS_P1;SDS_P2;PMS_P1;PMS_P2;Temp;Humidity;BMP_temperature;BMP_pressure;BME280_temperature;BME280_humidity;BME280_pressure;Samples;Min_cycle;Max_cycle;Signal;HPM_P1;HPM_P2
2022/05/06 00:02:23;;;;;;;62.40;54.30;;;11.60;99.90;;;;;;5053578;28;20305;-61
2022/05/06 00:04:51;;;;;;;56.93;50.33;;;11.50;99.90;;;;;;5053635;28;20198;-61
2022/05/06 00:07:18;;;;;;;53.80;47.93;;;11.50;99.90;;;;;;5053550;28;20222;-61
2022/05/06 00:09:45;;;;;;;46.50;41.70;;;11.40;99.90;;;;;;5053272;28;20239;-61
2022/05/06 00:12:17;;;;;;;47.87;42.83;;;10.80;99.90;;;;;;5053010;28;20209;-62
2022/05/06 00:14:44;;;;;;;49.03;43.83;;;10.70;99.90;;;;;;5053390;28;20192;-61
2022/05/06 00:17:11;;;;;;;48.33;43.47;;;10.40;99.90;;;;;;5053159;28;20552;-61
2022/05/06 00:19:38;;;;;;;53.97;47.87;;;10.20;99.90;;;;;;5053618;28;20193;-62
2022/05/06 00:22:07;;;;;;;56.27;50.27;;;10.20;99.90;;;;;;5053007;28;20204;-61
2022/05/06 00:24:34;;;;;;;56.20;50.07;;;10.30;99.90;;;;;;5053498;28;20212;-61
2022/05/06 00:27:01;;;;;;;54.80;48.77;;;10.30;99.90;;;;;;5053379;28;20208;-61
2022/05/06 00:29:28;;;;;;;61.97;51.80;;;10.40;99.90;;;;;;5052842;28;20715;-61
2022/05/06 00:31:54;;;;;;;64.03;53.30;;;10.40;99.90;;;;;;5053098;28;20196;-62
2022/05/06 00:34:21;;;;;;;61.57;54.77;;;10.40;99.90;;;;;;5053044;28;20204;-61
2022/05/06 00:36:49;;;;;;;57.27;51.00;;;10.60;99.90;;;;;;5053045;28;20627;-61
2022/05/06 00:39:17;;;;;;;61.13;54.50;;;10.60;99.90;;;;;;5052632;28;20196;-61
2022/05/06 00:41:44;;;;;;;66.33;59.27;;;10.70;99.90;;;;;;5052834;28;20602;-61
2022/05/06 00:44:11;;;;;;;65.40;58.23;;;10.60;99.90;;;;;;5052663;28;20216;-61
2022/05/06 00:46:39;;;;;;;66.40;56.93;;;10.60;99.90;;;;;;5052517;28;20220;-62
2022/05/06 00:49:08;;;;;;;64.87;57.80;;;10.60;99.90;;;;;;5052777;28;20204;-62
2022/05/06 00:51:35;;;;;;;63.30;56.40;;;10.60;99.90;;;;;;5052689;28;20214;-61
2022/05/06 00:54:03;;;;;;;65.87;56.47;;;10.50;99.90;;;;;;5052999;28;20283;-61
2022/05/06 00:56:31;;;;;;;71.70;57.73;;;10.50;99.90;;;;;;5052558;28;20196;-62
2022/05/06 00:58:58;;;;;;;62.53;55.23;;;10.50;99.90;;;;;;5052400;28;20205;-61
2022/05/06 01:01:25;;;;;;;66.27;58.27;;;10.40;99.90;;;;;;5052534;28;20212;-61
2022/05/06 01:03:54;;;;;;;69.43;58.43;;;10.40;99.90;;;;;;5052540;28;20196;-61
2022/05/06 01:06:21;;;;;;;62.47;55.93;;;10.40;99.90;;;;;;5052427;28;20216;-60
2022/05/06 01:08:47;;;;;;;59.40;51.37;;;10.30;99.90;;;;;;5051978;28;20232;-61
2022/05/06 01:11:15;;;;;;;58.37;51.53;;;10.20;99.90;;;;;;5052010;28;20200;-61
2022/05/06 01:13:45;;;;;;;62.87;55.67;;;10.10;99.90;;;;;;5051995;28;20294;-61
2022/05/06 01:16:13;;;;;;;68.07;57.20;;;10.20;99.90;;;;;;5052251;28;20205;-61
2022/05/06 01:18:40;;;;;;;62.47;54.93;;;10.20;99.90;;;;;;5052256;28;20196;-61
2022/05/06 01:21:07;;;;;;;61.03;53.70;;;10.20;99.90;;;;;;5052197;28;20197;-61
2022/05/06 01:23:37;;;;;;;49.73;44.43;;;10.10;99.90;;;;;;5052167;28;20253;-61
2022/05/06 01:26:04;;;;;;;50.13;43.33;;;10.00;99.90;;;;;;5052789;28;20203;-61
2022/05/06 01:28:35;;;;;;;57.33;50.00;;;10.00;99.90;;;;;;5051169;28;20246;-61
2022/05/06 01:31:03;;;;;;;56.37;47.00;;;10.00;99.90;;;;;;5052366;28;20186;-62
2022/05/06 01:33:31;;;;;;;50.50;44.40;;;10.00;99.90;;;;;;5052116;28;20199;-61
2022/05/06 01:36:03;;;;;;;59.43;51.00;;;9.80;99.90;;;;;;5052484;28;20192;-62
2022/05/06 01:38:35;;;;;;;59.13;49.90;;;9.70;99.90;;;;;;5052875;28;20188;-63
2022/05/06 01:41:08;;;;;;;43.27;38.67;;;9.40;99.90;;;;;;5053174;28;20191;-62
2022/05/06 01:43:40;;;;;;;49.67;44.33;;;9.40;99.90;;;;;;5052294;28;20278;-62
2022/05/06 01:46:08;;;;;;;56.43;48.73;;;9.40;99.90;;;;;;5052264;28;20203;-62
2022/05/06 01:48:37;;;;;;;64.27;53.73;;;9.40;99.90;;;;;;5052251;28;20207;-62
2022/05/06 01:51:04;;;;;;;65.30;55.20;;;9.40;99.90;;;;;;5052039;28;20203;-62
2022/05/06 01:53:31;;;;;;;78.20;64.90;;;9.60;99.90;;;;;;5052191;28;20202;-61
2022/05/06 01:55:58;;;;;;;77.37;62.77;;;9.60;99.90;;;;;;5052308;28;20200;-62
2022/05/06 01:58:26;;;;;;;76.13;60.80;;;9.70;99.90;;;;;;5052052;28;20201;-62
2022/05/06 02:00:53;;;;;;;74.87;59.73;;;9.70;99.90;;;;;;5052165;28;20203;-61
2022/05/06 02:06:04;;;;;;;78.87;62.00;;;9.60;99.90;;;;;;5052119;28;20585;-60
2022/05/06 02:08:31;;;;;;;84.30;66.80;;;9.70;99.90;;;;;;5051573;28;20248;-63
2022/05/06 02:10:58;;;;;;;79.13;59.90;;;9.60;99.90;;;;;;5052102;28;20202;-61
2022/05/06 02:13:26;;;;;;;74.40;54.67;;;9.60;99.90;;;;;;5052004;28;20200;-61
2022/05/06 02:15:54;;;;;;;72.73;52.73;;;9.60;99.90;;;;;;5052018;28;20259;-61
2022/05/06 02:18:20;;;;;;;62.10;53.07;;;9.60;99.90;;;;;;5051659;28;20188;-61
2022/05/06 02:20:47;;;;;;;64.33;53.90;;;9.60;99.90;;;;;;5052012;28;20207;-61
2022/05/06 02:23:15;;;;;;;62.50;53.77;;;9.60;99.90;;;;;;5051940;28;20212;-62
2022/05/06 02:25:42;;;;;;;71.47;57.17;;;9.60;99.90;;;;;;5051915;28;20197;-61
2022/05/06 02:28:09;;;;;;;79.67;60.37;;;9.30;99.90;;;;;;5051900;28;20223;-61
2022/05/06 02:33:24;;;;;;;40.07;35.80;;;9.20;99.90;;;;;;5053157;28;20187;-62
2022/05/06 02:35:52;;;;;;;33.90;29.80;;;9.00;99.90;;;;;;5051880;28;20254;-62
2022/05/06 02:38:20;;;;;;;47.23;32.83;;;9.00;99.90;;;;;;5051909;28;20692;-62
2022/05/06 02:40:48;;;;;;;51.50;43.67;;;8.80;99.90;;;;;;5055570;28;20201;-62
2022/05/06 02:43:15;;;;;;;64.70;51.87;;;8.80;99.90;;;;;;5055431;28;20210;-61
2022/05/06 02:45:44;;;;;;;71.00;56.07;;;9.00;99.90;;;;;;5055179;28;20203;-62
2022/05/06 02:48:11;;;;;;;77.73;57.57;;;9.00;99.90;;;;;;5055304;28;20253;-61
2022/05/06 02:50:39;;;;;;;122.07;53.27;;;8.90;99.90;;;;;;5055064;28;20669;-62
2022/05/06 02:53:06;;;;;;;83.50;62.40;;;9.00;99.90;;;;;;5055365;28;20221;-61
2022/05/06 02:55:33;;;;;;;80.57;61.33;;;8.90;99.90;;;;;;5055285;28;20211;-62
2022/05/06 02:58:00;;;;;;;73.50;55.90;;;8.70;99.90;;;;;;5054891;28;20207;-62
2022/05/06 03:00:28;;;;;;;191.00;59.50;;;8.70;99.90;;;;;;5055105;28;20215;-62
2022/05/06 03:02:57;;;;;;;53.20;46.40;;;8.70;99.90;;;;;;5055146;28;20230;-61
2022/05/06 03:05:24;;;;;;;50.80;45.27;;;8.70;99.90;;;;;;5055077;28;20280;-61
2022/05/06 03:07:51;;;;;;;47.13;41.90;;;8.70;99.90;;;;;;5055159;28;20212;-61
2022/05/06 03:10:18;;;;;;;42.20;37.70;;;8.60;99.90;;;;;;5054670;28;20265;-61
2022/05/06 03:12:46;;;;;;;59.53;48.00;;;8.70;99.90;;;;;;5054797;28;20204;-64
2022/05/06 03:15:14;;;;;;;56.40;45.60;;;8.80;99.90;;;;;;5054810;28;20200;-62
2022/05/06 03:17:41;;;;;;;71.20;53.13;;;8.70;99.90;;;;;;5054925;28;20188;-61
2022/05/06 03:20:09;;;;;;;59.53;48.43;;;8.70;99.90;;;;;;5054600;28;20683;-61
2022/05/06 03:22:41;;;;;;;66.40;52.83;;;8.70;99.90;;;;;;5054691;28;20200;-61
2022/05/06 03:25:10;;;;;;;78.00;57.00;;;8.70;99.90;;;;;;5054739;28;20198;-61
2022/05/06 03:30:21;;;;;;;64.80;49.47;;;8.70;99.90;;;;;;5054578;28;20513;-62
2022/05/06 03:32:48;;;;;;;68.70;51.93;;;8.70;99.90;;;;;;5054679;28;20253;-62
2022/05/06 03:35:17;;;;;;;66.67;49.00;;;8.70;99.90;;;;;;5055618;28;20195;-62
2022/05/06 03:37:44;;;;;;;65.27;50.00;;;8.70;99.90;;;;;;5054364;28;20934;-61
2022/05/06 03:40:12;;;;;;;67.93;52.53;;;8.60;99.90;;;;;;5054423;28;20200;-61
2022/05/06 03:42:39;;;;;;;71.13;54.07;;;8.60;99.90;;;;;;5054257;28;20211;-62
2022/05/06 03:45:07;;;;;;;61.37;46.73;;;8.50;99.90;;;;;;5053975;28;20207;-61
2022/05/06 03:47:35;;;;;;;46.27;38.20;;;8.40;99.90;;;;;;5054120;28;20225;-61
2022/05/06 03:52:50;;;;;;;61.50;48.37;;;8.20;99.90;;;;;;5054200;28;20294;-61
2022/05/06 03:55:17;;;;;;;62.27;48.20;;;8.30;99.90;;;;;;5054099;28;20194;-62
2022/05/06 03:57:44;;;;;;;65.70;47.50;;;8.30;99.90;;;;;;5053968;28;20195;-63
2022/05/06 04:00:13;;;;;;;60.20;47.37;;;8.20;99.90;;;;;;5054045;28;20203;-61
2022/05/06 04:02:39;;;;;;;37.43;32.40;;;8.10;99.90;;;;;;5054008;28;20202;-61
2022/05/06 04:05:08;;;;;;;43.10;34.63;;;8.10;99.90;;;;;;5053739;28;20195;-62
2022/05/06 04:07:35;;;;;;;44.93;35.70;;;8.10;99.90;;;;;;5053836;28;20219;-61
2022/05/06 04:10:04;;;;;;;46.07;38.03;;;7.80;99.90;;;;;;5053652;28;20227;-61
2022/05/06 04:12:31;;;;;;;42.60;34.83;;;7.80;99.90;;;;;;5053741;28;20206;-62
2022/05/06 04:14:58;;;;;;;57.70;28.83;;;7.80;99.90;;;;;;5053808;28;20199;-61
2022/05/06 04:17:25;;;;;;;37.93;29.30;;;7.70;99.90;;;;;;5053689;28;20199;-61
2022/05/06 04:25:31;;;;;;;100.40;44.67;;;7.50;99.90;;;;;;4971648;28;20207;-62
2022/05/06 04:27:58;;;;;;;192.40;52.50;;;7.60;99.90;;;;;;4972196;28;20314;-61
2022/05/06 04:30:25;;;;;;;221.80;50.87;;;7.60;99.90;;;;;;4972522;28;20200;-62
2022/05/06 04:32:51;;;;;;;181.70;52.33;;;7.60;99.90;;;;;;4972582;28;20630;-63
2022/05/06 04:35:19;;;;;;;122.53;46.17;;;7.60;99.90;;;;;;4976146;28;20220;-59
2022/05/06 04:37:46;;;;;;;64.57;46.20;;;7.60;99.90;;;;;;4972382;28;20697;-59
2022/05/06 04:40:13;;;;;;;125.47;48.43;;;7.50;99.90;;;;;;4972189;28;20209;-60
2022/05/06 04:42:42;;;;;;;99.87;47.20;;;7.70;99.90;;;;;;4972080;28;20220;-60
2022/05/06 04:45:09;;;;;;;159.80;55.63;;;7.80;99.90;;;;;;4972139;28;20217;-60
2022/05/06 04:47:37;;;;;;;141.90;51.53;;;7.90;99.90;;;;;;4971944;28;20220;-61
2022/05/06 04:50:05;;;;;;;63.47;46.90;;;8.10;99.90;;;;;;4972219;28;20206;-60
2022/05/06 04:52:33;;;;;;;70.00;47.27;;;8.10;99.90;;;;;;4972008;28;20203;-60
2022/05/06 04:55:00;;;;;;;84.60;49.23;;;8.10;99.90;;;;;;4971986;28;20214;-60
2022/05/06 04:57:27;;;;;;;98.73;55.13;;;8.00;99.90;;;;;;4972013;28;20222;-60
2022/05/06 04:59:55;;;;;;;75.03;51.90;;;8.00;99.90;;;;;;4971786;28;20202;-59
2022/05/06 05:02:22;;;;;;;88.70;52.80;;;8.30;99.90;;;;;;5048028;28;20253;-59
2022/05/06 05:04:52;;;;;;;138.17;53.07;;;8.70;99.90;;;;;;5052904;28;20213;-58
2022/05/06 05:07:20;;;;;;;155.20;51.30;;;9.00;99.90;;;;;;5052941;28;20191;-59
2022/05/06 05:09:47;;;;;;;138.87;54.53;;;9.10;99.90;;;;;;5052511;28;20701;-59
2022/05/06 05:12:14;;;;;;;159.07;57.60;;;9.10;99.90;;;;;;5052622;28;20203;-59
2022/05/06 05:14:42;;;;;;;271.10;60.80;;;9.20;99.90;;;;;;5052860;28;20200;-59
2022/05/06 05:17:11;;;;;;;171.57;58.47;;;9.20;99.90;;;;;;5052392;28;20692;-59
2022/05/06 05:19:38;;;;;;;176.97;57.10;;;9.20;99.90;;;;;;5052688;28;20637;-59
2022/05/06 05:22:06;;;;;;;141.70;50.57;;;9.30;99.90;;;;;;5052574;28;20192;-59
2022/05/06 05:24:33;;;;;;;152.13;53.90;;;9.40;99.90;;;;;;5052694;28;20577;-59
2022/05/06 05:27:00;;;;;;;234.57;59.30;;;9.50;99.90;;;;;;5052245;28;20668;-60
2022/05/06 05:29:27;;;;;;;121.57;49.13;;;9.50;99.90;;;;;;5052311;28;20223;-60
2022/05/06 05:31:54;;;;;;;144.73;51.30;;;9.60;99.90;;;;;;5052591;28;20570;-60
2022/05/06 05:34:22;;;;;;;91.00;46.63;;;9.60;99.90;;;;;;5053669;28;20199;-59
2022/05/06 05:36:49;;;;;;;198.43;66.90;;;9.60;99.90;;;;;;5053708;28;20269;-60
2022/05/06 05:39:16;;;;;;;188.67;65.80;;;9.60;99.90;;;;;;5052462;28;20297;-60
2022/05/06 05:41:43;;;;;;;115.30;52.87;;;9.70;99.90;;;;;;5051928;28;20191;-61
2022/05/06 05:49:40;;;;;;;100.50;53.50;;;9.80;99.90;;;;;;5052045;28;20662;-60
2022/05/06 05:52:08;;;;;;;102.30;51.20;;;9.90;99.90;;;;;;5052171;28;20212;-60
2022/05/06 05:54:34;;;;;;;127.60;50.00;;;10.00;99.90;;;;;;5052386;28;20202;-61
2022/05/06 05:57:01;;;;;;;94.10;49.40;;;9.90;99.90;;;;;;5052262;28;20197;-61
2022/05/06 05:59:28;;;;;;;90.20;47.20;;;9.90;99.90;;;;;;5052131;28;20217;-61
2022/05/06 06:01:55;;;;;;;162.90;58.23;;;10.00;99.90;;;;;;5052151;28;20197;-62
2022/05/06 06:04:22;;;;;;;110.87;51.13;;;10.10;99.90;;;;;;5052163;28;20197;-60
2022/05/06 06:06:51;;;;;;;107.53;52.67;;;10.10;99.90;;;;;;5052154;28;20206;-59
2022/05/06 06:09:22;;;;;;;86.87;47.73;;;10.20;99.90;;;;;;5051750;28;20584;-60
2022/05/06 06:11:49;;;;;;;115.00;45.77;;;10.20;99.90;;;;;;5052020;28;20183;-60
2022/05/06 06:14:16;;;;;;;73.47;46.83;;;10.50;99.90;;;;;;5053959;28;20206;-60
2022/05/06 06:16:44;;;;;;;137.20;53.97;;;10.60;99.90;;;;;;5055645;28;20204;-61
2022/05/06 06:19:11;;;;;;;82.03;45.43;;;10.50;99.90;;;;;;5055510;28;20197;-60
2022/05/06 06:21:38;;;;;;;83.97;47.50;;;10.80;99.90;;;;;;5055889;28;20576;-61
2022/05/06 06:24:07;;;;;;;127.50;58.60;;;10.70;99.90;;;;;;5055737;28;20278;-61
2022/05/06 06:26:34;;;;;;;62.67;46.80;;;10.80;99.90;;;;;;5055590;28;20199;-61
2022/05/06 06:29:02;;;;;;;132.43;56.37;;;10.80;99.90;;;;;;5055337;28;20567;-61
2022/05/06 06:31:31;;;;;;;101.43;52.23;;;10.60;99.90;;;;;;5055456;28;20198;-61
2022/05/06 06:33:58;;;;;;;126.40;57.90;;;10.60;99.90;;;;;;5055882;28;20305;-60
2022/05/06 06:36:25;;;;;;;76.00;53.43;;;10.70;99.90;;;;;;5055361;28;20213;-61
2022/05/06 06:38:52;;;;;;;87.77;51.67;;;11.10;99.90;;;;;;5055314;28;20214;-61
2022/05/06 06:41:21;;;;;;;67.67;48.97;;;11.00;99.90;;;;;;5055259;28;20199;-61
2022/05/06 06:43:48;;;;;;;101.20;52.63;;;11.00;99.90;;;;;;5054826;28;20274;-61
2022/05/06 06:46:16;;;;;;;69.97;50.47;;;11.10;99.90;;;;;;5055261;28;20229;-61
2022/05/06 06:48:43;;;;;;;88.80;48.00;;;11.10;99.90;;;;;;5055130;28;20617;-61
2022/05/06 06:51:10;;;;;;;56.33;46.80;;;11.30;99.90;;;;;;5055047;28;20199;-61
2022/05/06 06:53:37;;;;;;;54.07;45.67;;;11.50;99.90;;;;;;5055038;28;20207;-61
2022/05/06 06:56:05;;;;;;;51.60;44.10;;;11.60;99.90;;;;;;5055066;28;20562;-61
2022/05/06 06:58:33;;;;;;;54.10;44.10;;;11.60;99.90;;;;;;5055023;28;20241;-61
2022/05/06 07:01:02;;;;;;;51.30;43.57;;;11.80;99.90;;;;;;5054928;28;20196;-61
2022/05/06 07:03:29;;;;;;;55.07;44.17;;;11.90;99.90;;;;;;5054896;28;20555;-61
2022/05/06 07:14:10;;;;;;;66.93;49.57;;;11.60;99.90;;;;;;5054391;28;20183;-61
2022/05/06 07:16:39;;;;;;;70.87;52.23;;;11.50;99.90;;;;;;5054586;28;20208;-61
2022/05/06 07:19:06;;;;;;;66.30;50.33;;;11.30;99.90;;;;;;5054532;28;20195;-61
2022/05/06 07:21:33;;;;;;;66.30;47.93;;;11.60;99.90;;;;;;5054200;28;20238;-61
2022/05/06 07:24:00;;;;;;;60.13;47.03;;;11.50;99.90;;;;;;5054492;28;20218;-61
2022/05/06 07:26:27;;;;;;;55.10;44.80;;;11.50;99.90;;;;;;5053466;28;20200;-61
2022/05/06 07:28:54;;;;;;;54.97;44.63;;;11.30;99.90;;;;;;5054294;28;20219;-61
2022/05/06 07:31:23;;;;;;;50.47;41.37;;;11.50;99.90;;;;;;5054559;28;20214;-61
2022/05/06 07:33:50;;;;;;;53.70;42.73;;;11.70;99.90;;;;;;5054292;28;20196;-61
2022/05/06 07:36:17;;;;;;;46.47;38.87;;;11.60;99.90;;;;;;5054311;28;20195;-61
2022/05/06 07:38:44;;;;;;;45.77;38.87;;;11.70;99.90;;;;;;5054576;28;20238;-61
2022/05/06 07:41:11;;;;;;;56.47;43.60;;;11.80;99.90;;;;;;5054238;28;20612;-61
2022/05/06 07:43:38;;;;;;;46.47;40.17;;;11.70;99.90;;;;;;5054020;28;20196;-61
2022/05/06 07:46:05;;;;;;;48.03;39.93;;;11.80;99.90;;;;;;5054089;28;20209;-61
2022/05/06 07:48:33;;;;;;;49.57;41.67;;;11.90;99.90;;;;;;5054004;28;20399;-61
2022/05/06 07:51:00;;;;;;;43.13;38.23;;;11.70;99.90;;;;;;5053981;28;20196;-61
2022/05/06 07:53:27;;;;;;;55.57;44.17;;;11.90;99.90;;;;;;5053632;28;20664;-61
2022/05/06 07:55:54;;;;;;;48.67;40.27;;;11.90;99.90;;;;;;5053609;28;20196;-61
2022/05/06 07:58:21;;;;;;;43.43;37.20;;;12.00;99.90;;;;;;5053773;28;20191;-61
2022/05/06 08:00:50;;;;;;;44.10;36.60;;;12.20;99.90;;;;;;5053552;28;20558;-61
2022/05/06 08:06:03;;;;;;;39.80;35.40;;;12.20;99.90;;;;;;5053497;28;20176;-60
2022/05/06 08:08:31;;;;;;;42.60;36.77;;;12.50;99.90;;;;;;5053109;28;20661;-61
2022/05/06 08:10:59;;;;;;;42.70;36.67;;;12.70;99.90;;;;;;5053701;28;20176;-61
2022/05/06 08:13:26;;;;;;;38.13;32.80;;;12.60;99.90;;;;;;5053314;28;20207;-61
2022/05/06 08:15:55;;;;;;;42.87;36.20;;;12.80;99.90;;;;;;5053490;28;20257;-61
2022/05/06 08:18:22;;;;;;;46.13;37.93;;;13.10;99.90;;;;;;5053468;28;20195;-61
2022/05/06 08:20:49;;;;;;;46.53;40.27;;;12.80;99.90;;;;;;5053389;28;20218;-61
2022/05/06 08:23:18;;;;;;;41.53;36.63;;;12.80;99.90;;;;;;5053459;28;20234;-61
2022/05/06 08:25:45;;;;;;;49.60;41.53;;;12.70;99.90;;;;;;5053177;28;20234;-61
2022/05/06 08:28:13;;;;;;;41.10;35.63;;;12.90;99.90;;;;;;5053312;28;20610;-61
2022/05/06 08:30:40;;;;;;;42.23;36.63;;;12.80;99.90;;;;;;5053130;28;20244;-61
2022/05/06 08:33:07;;;;;;;46.03;38.10;;;13.00;99.90;;;;;;5053202;28;20200;-61
2022/05/06 08:35:34;;;;;;;44.20;36.87;;;13.20;99.90;;;;;;5053090;28;20211;-61
2022/05/06 08:38:01;;;;;;;41.87;37.43;;;13.70;99.90;;;;;;5052440;28;20195;-62
2022/05/06 08:40:30;;;;;;;50.03;42.33;;;13.90;99.90;;;;;;5052799;28;20656;-62
2022/05/06 08:42:57;;;;;;;41.00;35.73;;;13.90;99.90;;;;;;5052970;28;20227;-62
2022/05/06 08:51:07;;;;;;;37.13;33.13;;;15.10;99.90;;;;;;4971719;28;20251;-62
2022/05/06 08:53:36;;;;;;;37.20;33.10;;;15.80;99.90;;;;;;4971822;28;20212;-62
2022/05/06 08:56:05;;;;;;;37.37;33.43;;;16.30;99.90;;;;;;4971578;28;20248;-62
2022/05/06 08:58:36;;;;;;;39.03;33.00;;;16.70;99.90;;;;;;4971503;28;20671;-62
2022/05/06 09:01:05;;;;;;;44.70;36.60;;;16.70;99.90;;;;;;4971628;28;20304;-62
2022/05/06 09:03:32;;;;;;;34.43;30.93;;;15.80;99.90;;;;;;4971589;28;20265;-62
2022/05/06 09:05:59;;;;;;;33.73;30.30;;;16.40;99.90;;;;;;4971465;28;20560;-62
2022/05/06 09:08:38;;;;;;;35.33;31.50;;;17.00;99.90;;;;;;4971194;28;20613;-62
2022/05/06 09:11:08;;;;;;;92.87;37.30;;;17.80;99.90;;;;;;4971526;28;20222;-63
2022/05/06 09:13:36;;;;;;;36.57;32.87;;;17.30;99.90;;;;;;4971307;28;20697;-62
2022/05/06 09:19:19;;;;;;;36.70;32.80;;;18.00;99.90;;;;;;4971280;28;20175;-62
2022/05/06 09:22:06;;;;;;;35.90;32.13;;;19.00;99.90;;;;;;4985936;28;20305;-62
2022/05/06 09:24:34;;;;;;;38.25;30.05;;;19.70;99.90;;;;;;5051995;28;20209;-62
2022/05/06 09:27:04;;;;;;;35.38;31.48;;;19.80;99.90;;;;;;5051950;28;20695;-62
2022/05/06 09:29:33;;;;;;;34.38;30.73;;;19.50;99.90;;;;;;5051839;28;20220;-62
2022/05/06 09:32:20;;;;;;;36.25;32.58;;;18.10;99.90;;;;;;5052466;28;20205;-62
2022/05/06 09:34:49;;;;;;;34.20;30.83;;;17.70;99.90;;;;;;5052209;28;20189;-62
2022/05/06 09:37:37;;;;;;;36.45;32.67;;;18.60;99.90;;;;;;5051924;28;20772;-62
2022/05/06 09:40:09;;;;;;;33.65;30.10;;;19.10;99.90;;;;;;5052313;28;20176;-62
2022/05/06 09:42:39;;;;;;;35.40;31.80;;;19.80;99.90;;;;;;5051831;28;20199;-62
2022/05/06 09:45:07;;;;;;;37.53;33.10;;;20.10;99.90;;;;;;5051996;28;20261;-61
2022/05/06 09:47:34;;;;;;;33.05;29.75;;;21.00;99.90;;;;;;5051966;28;20192;-61
2022/05/06 09:50:02;;;;;;;34.13;30.80;;;21.20;99.90;;;;;;5055142;28;20660;-63
2022/05/06 09:52:29;;;;;;;35.50;31.98;;;20.40;99.90;;;;;;5056274;28;20199;-63
2022/05/06 09:54:57;;;;;;;35.15;30.35;;;20.60;99.90;;;;;;5055896;28;20237;-64
2022/05/06 09:57:25;;;;;;;37.55;33.50;;;20.70;99.90;;;;;;5056101;28;20203;-63
2022/05/06 09:59:53;;;;;;;35.22;31.67;;;20.20;99.90;;;;;;5056048;28;20196;-62
2022/05/06 10:02:20;;;;;;;34.33;30.73;;;19.90;99.90;;;;;;5056071;28;20211;-62
2022/05/06 10:04:49;;;;;;;35.67;31.80;;;19.70;99.90;;;;;;5055997;28;20210;-62
2022/05/06 10:07:18;;;;;;;32.90;29.40;;;19.60;99.90;;;;;;5055975;28;20607;-61
2022/05/06 10:09:56;;;;;;;33.50;30.13;;;19.40;99.90;;;;;;5055436;28;20772;-62
2022/05/06 10:12:25;;;;;;;30.58;27.48;;;19.70;99.90;;;;;;5055680;28;20184;-62
2022/05/06 10:14:54;;;;;;;33.25;29.92;;;20.80;99.90;;;;;;5055429;28;20679;-61
2022/05/06 10:17:53;;;;;;;32.58;29.23;;;20.20;99.90;;;;;;5055770;28;20203;-62
2022/05/06 10:20:47;;;;;;;31.13;28.00;;;20.10;99.90;;;;;;5055437;28;20207;-61
2022/05/06 10:23:18;;;;;;;31.52;28.40;;;21.30;99.90;;;;;;5055644;28;20200;-60
2022/05/06 10:25:54;;;;;;;32.97;28.98;;;21.20;99.90;;;;;;5055355;28;20188;-60
2022/05/06 10:35:11;;;;;;;29.80;26.70;;;21.70;99.90;;;;;;5055383;28;20626;-61
2022/05/06 10:37:39;;;;;;;34.35;30.63;;;22.10;99.90;;;;;;5055319;28;20183;-61
2022/05/06 10:40:31;;;;;;;35.60;30.70;;;21.20;99.90;;;;;;5055101;28;20693;-61
2022/05/06 10:42:59;;;;;;;33.33;29.85;;;21.20;99.90;;;;;;5055140;28;20212;-61
2022/05/06 10:45:29;;;;;;;31.33;27.98;;;21.50;99.90;;;;;;5054850;28;20687;-61
2022/05/06 10:47:58;;;;;;;32.28;28.98;;;22.00;99.90;;;;;;5055066;28;20710;-61
2022/05/06 10:50:29;;;;;;;31.67;28.48;;;22.70;99.90;;;;;;5054843;28;20700;-62
2022/05/06 10:52:57;;;;;;;32.10;28.85;;;23.10;99.90;;;;;;5055135;28;20207;-62
2022/05/06 10:55:26;;;;;;;34.78;31.13;;;23.40;99.90;;;;;;5055041;28;20290;-62
2022/05/06 10:58:06;;;;;;;33.75;30.50;;;23.90;99.90;;;;;;5055092;28;20207;-61
2022/05/06 11:00:38;;;;;;;32.85;29.73;;;24.50;80.80;;;;;;5054660;28;20215;-62
2022/05/06 11:03:06;;;;;;;31.83;28.75;;;24.70;50.60;;;;;;5054932;28;20192;-62
2022/05/06 11:05:33;;;;;;;32.45;29.30;;;24.30;24.10;;;;;;5054794;28;20192;-62
2022/05/06 11:08:02;;;;;;;31.92;28.85;;;24.70;7.90;;;;;;5054555;28;20204;-61
2022/05/06 11:10:33;;;;;;;32.90;29.70;;;24.00;1.00;;;;;;5054371;28;20250;-62
2022/05/06 11:13:01;;;;;;;33.45;30.15;;;24.10;1.00;;;;;;5054805;28;20176;-61
2022/05/06 11:15:32;;;;;;;33.22;30.13;;;23.30;1.00;;;;;;5054597;28;20246;-61
2022/05/06 11:18:01;;;;;;;33.80;30.67;;;23.90;1.00;;;;;;5054416;28;20223;-61
2022/05/06 11:20:31;;;;;;;33.22;30.02;;;24.60;1.00;;;;;;5054635;28;20567;-61
2022/05/06 11:23:01;;;;;;;35.17;31.73;;;24.70;1.00;;;;;;5054531;28;20187;-60
2022/05/06 11:25:30;;;;;;;34.75;31.52;;;24.50;1.00;;;;;;5054189;28;20207;-61
2022/05/06 11:27:58;;;;;;;35.75;32.35;;;24.70;1.00;;;;;;5053911;28;20208;-61
2022/05/06 11:30:27;;;;;;;36.65;33.05;;;23.20;1.00;;;;;;5054103;28;20629;-61
2022/05/06 11:32:56;;;;;;;34.42;31.13;;;22.80;1.00;;;;;;5054155;28;20214;-61
2022/05/06 11:35:27;;;;;;;35.13;31.83;;;23.60;1.00;;;;;;5053832;28;20199;-61
2022/05/06 11:37:56;;;;;;;34.60;31.13;;;24.00;1.00;;;;;;5053965;28;20190;-61
2022/05/06 11:40:37;;;;;;;37.38;33.70;;;24.20;1.00;;;;;;5054142;28;20672;-62
2022/05/06 11:43:09;;;;;;;36.60;33.00;;;23.50;1.00;;;;;;5053784;28;20557;-61
2022/05/06 11:48:22;;;;;;;34.13;30.83;;;23.40;1.00;;;;;;5053802;28;20497;-61
2022/05/06 11:50:54;;;;;;;36.13;32.70;;;23.80;1.00;;;;;;5053908;28;20564;-61
2022/05/06 11:53:26;;;;;;;34.47;30.95;;;24.70;1.00;;;;;;5054208;28;20184;-61
2022/05/06 11:55:55;;;;;;;35.40;32.00;;;25.00;1.00;;;;;;5053990;28;20191;-61
2022/05/06 11:58:23;;;;;;;39.80;35.92;;;25.20;1.00;;;;;;5053822;28;20207;-61
2022/05/06 12:00:52;;;;;;;41.35;37.25;;;24.70;1.00;;;;;;5053806;28;20195;-61
2022/05/06 12:03:20;;;;;;;42.05;37.67;;;23.90;1.00;;;;;;5053535;28;20687;-61
2022/05/06 12:06:00;;;;;;;40.22;36.15;;;23.60;1.00;;;;;;5053712;28;20265;-60
2022/05/06 12:08:32;;;;;;;38.28;34.33;;;23.40;1.00;;;;;;5053603;28;20183;-62
2022/05/06 12:10:59;;;;;;;35.63;32.03;;;23.30;1.00;;;;;;5052968;28;20222;-61
2022/05/06 12:13:32;;;;;;;38.65;34.55;;;23.30;1.00;;;;;;5053669;28;20211;-61
2022/05/06 12:16:06;;;;;;;38.40;34.47;;;22.50;1.00;;;;;;5052722;28;20245;-61
2022/05/06 12:18:33;;;;;;;54.25;38.30;;;22.70;1.00;;;;;;5053527;28;20187;-60
2022/05/06 12:21:01;;;;;;;36.38;32.60;;;22.30;1.00;;;;;;5053463;28;20196;-60
2022/05/06 12:23:30;;;;;;;34.80;30.55;;;22.50;1.00;;;;;;5053128;28;20257;-60
2022/05/06 12:25:58;;;;;;;32.78;29.45;;;23.40;1.00;;;;;;5053374;28;20195;-61
2022/05/06 12:28:27;;;;;;;30.25;27.20;;;24.20;1.00;;;;;;5052912;28;20218;-61
2022/05/06 12:30:59;;;;;;;31.05;27.88;;;24.20;1.00;;;;;;5053025;28;20219;-61
2022/05/06 12:33:37;;;;;;;35.13;31.52;;;23.50;1.00;;;;;;5053302;28;20211;-60
2022/05/06 12:36:05;;;;;;;41.28;36.80;;;22.40;1.00;;;;;;5053072;28;20270;-60
2022/05/06 12:38:50;;;;;;;39.00;35.00;;;22.00;1.00;;;;;;5052823;28;20668;-61
2022/05/06 12:41:19;;;;;;;37.15;33.33;;;22.00;1.00;;;;;;5052943;28;20199;-61
2022/05/06 12:43:46;;;;;;;28.67;25.92;;;22.30;1.00;;;;;;5052693;28;20229;-61
2022/05/06 12:46:25;;;;;;;21.23;19.10;;;23.40;1.00;;;;;;5052624;28;20557;-60
2022/05/06 12:51:36;;;;;;;26.30;23.60;;;24.60;1.00;;;;;;5052603;28;20203;-61
2022/05/06 12:54:04;;;;;;;28.45;25.52;;;24.40;1.00;;;;;;5052733;28;20214;-61
2022/05/06 12:56:31;;;;;;;29.88;26.77;;;23.80;1.00;;;;;;5052664;28;20610;-61
2022/05/06 12:58:58;;;;;;;29.63;26.73;;;23.10;1.00;;;;;;5052462;28;20762;-61
2022/05/06 13:01:25;;;;;;;30.73;27.42;;;22.90;1.00;;;;;;5052855;28;20203;-61
2022/05/06 13:03:52;;;;;;;18.55;16.50;;;23.20;1.00;;;;;;5052400;28;20196;-60
2022/05/06 13:06:19;;;;;;;22.15;19.88;;;22.90;1.00;;;;;;5052633;28;20207;-60
2022/05/06 13:08:46;;;;;;;21.90;19.70;;;23.20;1.00;;;;;;5052364;28;20214;-61
2022/05/06 13:11:14;;;;;;;22.88;20.67;;;23.80;1.00;;;;;;5052016;28;20685;-61
2022/05/06 13:13:41;;;;;;;26.65;23.95;;;23.30;1.00;;;;;;5052722;28;20196;-60
2022/05/06 13:16:09;;;;;;;25.00;22.40;;;23.00;1.00;;;;;;5052098;28;20206;-60
2022/05/06 13:18:36;;;;;;;23.50;21.10;;;22.60;1.00;;;;;;5052518;28;20202;-60
2022/05/06 13:21:03;;;;;;;23.25;21.00;;;22.90;1.00;;;;;;5052455;28;20195;-60
2022/05/06 13:23:31;;;;;;;19.52;17.52;;;22.80;1.00;;;;;;5052428;28;20593;-60
2022/05/06 13:25:58;;;;;;;17.40;15.60;;;22.60;1.00;;;;;;5052456;28;20214;-61
2022/05/06 13:28:27;;;;;;;20.00;18.00;;;23.10;1.00;;;;;;5052062;28;20203;-60
2022/05/06 13:30:54;;;;;;;18.40;16.60;;;23.20;1.00;;;;;;5052374;28;20326;-61
2022/05/06 13:33:21;;;;;;;19.33;17.45;;;23.60;1.00;;;;;;5051953;28;20206;-60